Aérodrome :
LOGIN :

S'inscrire | Disclaimer

   EN    FR    IT 

 










Légende :    VFR   VFR Marginal   IFR   IFR Intensif   IFR Très Intensif
Visi : 
Plafond : 
>= 8 km
>= 3000ft
5 à 8 km
1000 à 3000 ft
1500m à 5 km
500 à 1000 ft
800 à 1500m
200 à 500 ft
< 800m
< 200 ft
Symboles :   Orages  Brouillard  Fortes neiges  Fortes précipitations  Vent > 20 kt
SIGMETs :   Divers  Orages  Givrage  Turbulence  Onde Orograph.  Cendres Volcan.







- Altitude de l'aérodrome : 183 ft
- Code IATA : HAJ


EDDV - Hanover/Langenhagen Int.

DERNIER METAR :
  • 142220Z 27006KT 230V300 9999 FEW035 BKN300 17/13 Q1016

METARs EXPIRÉS :
  • 142150Z 28006KT 240V300 9999 FEW035 BKN300 17/13 Q1016
  • 142120Z 28007KT 9999 FEW042 BKN300 17/13 Q1016
  • 142050Z 28006KT 9999 SCT040 BKN300 18/13 Q1015 NOSIG
  • 142020Z 27007KT 9999 FEW035 SCT045 BKN300 18/12 Q1015 NOSIG
  • 141950Z 28005KT 9999 SCT040 BKN300 18/12 Q1015 NOSIG

TAF TAF EDDV
Valide du 14 à 18h jusqu'au 15 à 18h UTC


141700Z 1418/1518 28012KT 9999 SCT025
BECMG 1418/1420 26007KT
Pas de NOTAMs connus pour ce terrain.



MET'MAP, la Météo Aéronautique d'un coup d'oeil ! - Copyright ORBIFLY Décembre 2007 - Disclaimer

ORBIFLY MET'MAP TEAM :

Programmation & Développement : Alexandra Zaïnal
Conception & Développement : Baudouin d'Aumeries
Co-Programmation & Développement : Marc-Olivier Méhu
Soutien technique & logistique : Manuel Goepfert

Contact : metmap@orbifly.com




SOURCES & CREDITS :

   NOAA